Time;durP1;ratioP1;P1;durP2;ratioP2;P2;SDS_P1;SDS_P2;PMS_P1;PMS_P2;Temp;Humidity;BMP_temperature;BMP_pressure;BME280_temperature;BME280_humidity;BME280_pressure;Samples;Min_cycle;Max_cycle;Signal;HPM_P1;HPM_P2
2023/07/16 00:01:14;;;;;;;8.45;3.80;;;;;;;24.67;95.94;99223.59;5008220;28;20209;-60
2023/07/16 00:03:41;;;;;;;4.20;3.30;;;;;;;24.58;96.50;99213.34;5007624;28;20220;-60
2023/07/16 00:06:09;;;;;;;6.50;3.50;;;;;;;24.50;97.32;99218.75;5008332;28;20208;-60
2023/07/16 00:08:36;;;;;;;4.93;3.67;;;;;;;24.49;97.07;99214.50;5008135;28;20657;-60
2023/07/16 00:11:06;;;;;;;7.03;3.53;;;;;;;24.47;97.15;99213.91;5007931;28;20231;-61
2023/07/16 00:13:32;;;;;;;4.88;3.15;;;;;;;24.46;96.94;99220.13;5008124;28;20307;-60
2023/07/16 00:15:59;;;;;;;6.60;3.75;;;;;;;24.42;96.89;99215.47;5008139;28;20213;-60
2023/07/16 00:18:26;;;;;;;5.45;3.22;;;;;;;24.37;97.31;99208.22;5008191;28;20681;-60
2023/07/16 00:20:53;;;;;;;4.07;3.03;;;;;;;24.36;97.55;99214.47;5007954;28;20200;-60
2023/07/16 00:23:20;;;;;;;5.55;3.47;;;;;;;24.35;97.72;99210.25;5007956;28;20205;-60
2023/07/16 00:25:46;;;;;;;5.13;3.65;;;;;;;24.22;98.76;99210.19;5007965;28;20201;-60
2023/07/16 00:28:15;;;;;;;6.97;3.72;;;;;;;24.25;98.08;99209.78;5007966;28;20228;-60
2023/07/16 00:30:41;;;;;;;5.18;3.20;;;;;;;24.28;98.38;99209.41;5008197;28;20639;-60
2023/07/16 00:33:08;;;;;;;5.43;3.30;;;;;;;24.28;98.47;99209.41;5008159;28;20208;-60
2023/07/16 00:35:35;;;;;;;4.10;2.95;;;;;;;24.28;97.99;99214.63;5007945;28;20204;-60
2023/07/16 00:38:02;;;;;;;5.57;3.35;;;;;;;24.24;97.84;99213.44;5007887;28;20397;-60
2023/07/16 00:40:29;;;;;;;7.35;3.08;;;;;;;24.17;98.33;99211.59;5007725;28;20197;-60
2023/07/16 00:42:56;;;;;;;7.05;3.85;;;;;;;24.13;99.06;99209.56;5007654;28;20216;-60
2023/07/16 00:45:24;;;;;;;5.53;3.55;;;;;;;24.09;99.80;99213.56;5007591;28;20201;-60
2023/07/16 00:47:51;;;;;;;4.90;3.40;;;;;;;24.04;100.00;99213.34;5007502;28;20228;-60
2023/07/16 00:50:18;;;;;;;5.05;2.90;;;;;;;24.01;100.00;99209.31;5007761;28;20205;-60
2023/07/16 00:52:45;;;;;;;7.40;3.55;;;;;;;24.01;100.00;99213.72;5007694;28;20717;-60
2023/07/16 00:55:12;;;;;;;5.05;3.35;;;;;;;23.98;100.00;99208.91;5007551;28;20215;-60
2023/07/16 00:57:39;;;;;;;8.82;3.83;;;;;;;23.96;100.00;99211.69;5007717;28;20211;-60
2023/07/16 01:00:07;;;;;;;7.47;3.63;;;;;;;23.92;100.00;99205.25;5007562;28;20212;-60
2023/07/16 01:02:35;;;;;;;8.73;3.70;;;;;;;23.89;100.00;99205.66;5007597;28;20619;-60
2023/07/16 01:05:02;;;;;;;6.72;3.40;;;;;;;23.96;100.00;99201.25;5007292;28;20209;-60
2023/07/16 01:07:32;;;;;;;5.82;3.50;;;;;;;24.01;100.00;99204.09;5007443;28;20714;-60
2023/07/16 01:09:59;;;;;;;4.75;3.58;;;;;;;24.03;100.00;99209.09;5007402;28;20236;-60
2023/07/16 01:12:28;;;;;;;6.40;3.65;;;;;;;24.03;100.00;99204.72;5009951;28;20204;-60
2023/07/16 01:14:57;;;;;;;9.77;3.63;;;;;;;24.04;100.00;99202.91;5011015;28;20521;-60
2023/07/16 01:17:24;;;;;;;4.45;3.30;;;;;;;24.05;100.00;99200.06;5011154;28;20209;-60
2023/07/16 01:19:52;;;;;;;7.20;3.75;;;;;;;24.03;100.00;99196.03;5011358;28;20239;-60
2023/07/16 01:22:49;;;;;;;4.93;3.33;;;;;;;24.01;100.00;99193.63;5011119;28;20205;-60
2023/07/16 01:25:32;;;;;;;5.45;3.08;;;;;;;24.01;100.00;99196.25;5010229;28;20200;-60
2023/07/16 01:28:33;;;;;;;5.88;3.22;;;;;;;23.98;100.00;99188.00;5011008;28;20208;-60
2023/07/16 01:31:02;;;;;;;5.13;3.55;;;;;;;23.88;100.00;99193.56;4999947;28;20209;-60
2023/07/16 01:33:30;;;;;;;4.45;3.40;;;;;;;23.89;100.00;99189.97;5010837;28;20696;-60
2023/07/16 01:35:58;;;;;;;5.38;3.55;;;;;;;23.86;100.00;99192.97;5010593;28;20211;-60
2023/07/16 01:38:25;;;;;;;4.57;3.47;;;;;;;23.89;100.00;99195.22;5011025;28;20205;-60
2023/07/16 01:40:52;;;;;;;6.35;3.50;;;;;;;23.83;100.00;99188.94;5010710;28;20235;-60
2023/07/16 01:43:19;;;;;;;6.97;4.07;;;;;;;23.84;100.00;99192.38;5010847;28;20205;-60
2023/07/16 01:45:46;;;;;;;6.07;3.55;;;;;;;23.70;100.00;99196.72;5010751;28;20213;-60
2023/07/16 01:48:30;;;;;;;7.68;3.92;;;;;;;23.72;100.00;99184.28;5010673;28;20663;-60
2023/07/16 01:50:56;;;;;;;6.75;3.40;;;;;;;23.76;100.00;99195.13;5010762;28;20200;-60
2023/07/16 01:53:23;;;;;;;5.45;3.60;;;;;;;23.70;100.00;99197.50;5010498;28;20197;-60
2023/07/16 01:55:50;;;;;;;7.75;3.90;;;;;;;23.66;100.00;99201.47;5010271;28;20219;-60
2023/07/16 01:58:17;;;;;;;5.75;3.58;;;;;;;23.67;100.00;99199.66;5010320;28;20206;-60
2023/07/16 02:00:44;;;;;;;5.22;3.53;;;;;;;23.64;100.00;99205.28;5010501;28;20208;-60
2023/07/16 02:03:11;;;;;;;5.15;3.25;;;;;;;23.67;100.00;99205.69;5010356;28;20646;-60
2023/07/16 02:05:39;;;;;;;5.25;3.35;;;;;;;23.66;100.00;99206.69;5010261;28;20200;-60
2023/07/16 02:08:06;;;;;;;4.90;3.35;;;;;;;23.62;100.00;99205.50;5010349;28;20704;-60
2023/07/16 02:10:33;;;;;;;5.28;3.53;;;;;;;23.57;100.00;99210.47;5010189;28;20236;-60
2023/07/16 02:13:00;;;;;;;8.07;3.90;;;;;;;23.44;100.00;99208.56;5010117;28;20220;-60
2023/07/16 02:15:27;;;;;;;5.18;3.60;;;;;;;23.44;100.00;99202.53;5010028;28;20207;-60
2023/07/16 02:17:53;;;;;;;5.43;3.80;;;;;;;23.44;100.00;99192.91;5010360;28;20240;-60
2023/07/16 02:20:20;;;;;;;5.70;3.60;;;;;;;23.43;100.00;99204.34;5009954;28;20200;-60
2023/07/16 02:22:48;;;;;;;7.10;3.22;;;;;;;23.44;100.00;99199.94;5008707;28;20208;-60
2023/07/16 02:25:15;;;;;;;6.57;4.10;;;;;;;23.40;100.00;99204.75;5009970;28;20605;-60
2023/07/16 02:27:42;;;;;;;6.97;3.90;;;;;;;23.34;100.00;99202.09;5009978;28;20603;-60
2023/07/16 02:30:10;;;;;;;5.90;3.72;;;;;;;23.26;100.00;99201.22;5009855;28;20432;-60
2023/07/16 02:32:37;;;;;;;9.25;3.90;;;;;;;23.23;100.00;99199.00;5009719;28;20215;-60
2023/07/16 02:35:04;;;;;;;6.70;3.67;;;;;;;23.27;100.00;99196.81;5009647;28;20205;-60
2023/07/16 02:37:30;;;;;;;5.80;3.50;;;;;;;23.30;100.00;99195.63;5009862;28;20201;-60
2023/07/16 02:40:00;;;;;;;5.63;4.05;;;;;;;23.31;100.00;99199.88;5009803;28;20204;-60
2023/07/16 02:42:27;;;;;;;6.13;3.97;;;;;;;23.28;100.00;99204.47;5009882;28;20220;-60
2023/07/16 02:44:54;;;;;;;6.78;3.35;;;;;;;23.23;100.00;99204.22;5009426;28;20588;-60
2023/07/16 02:47:20;;;;;;;6.53;4.03;;;;;;;23.21;100.00;99206.22;4998521;28;20604;-60
2023/07/16 02:49:47;;;;;;;5.93;3.70;;;;;;;23.21;100.00;99208.84;4989758;28;20264;-60
2023/07/16 02:52:14;;;;;;;5.55;3.80;;;;;;;23.20;100.00;99215.03;4990414;28;20201;-60
2023/07/16 02:54:41;;;;;;;5.75;4.03;;;;;;;23.18;100.00;99203.97;4989917;28;20620;-60
2023/07/16 02:57:09;;;;;;;6.05;3.95;;;;;;;23.17;100.00;99206.78;4989572;28;20198;-60
2023/07/16 02:59:36;;;;;;;7.22;4.07;;;;;;;23.12;100.00;99209.94;4989696;28;20233;-60
2023/07/16 03:02:03;;;;;;;6.50;3.40;;;;;;;23.17;100.00;99220.63;4989556;28;20202;-60
2023/07/16 03:04:30;;;;;;;5.68;3.72;;;;;;;23.17;100.00;99210.19;4989464;28;20201;-60
2023/07/16 03:06:57;;;;;;;6.82;4.20;;;;;;;23.19;100.00;99217.84;4989632;28;20388;-60
2023/07/16 03:09:23;;;;;;;6.60;3.80;;;;;;;23.19;100.00;99226.47;4989445;28;20241;-60
2023/07/16 03:11:50;;;;;;;5.53;3.70;;;;;;;23.19;100.00;99216.03;4989387;28;20617;-61
2023/07/16 03:14:18;;;;;;;6.22;4.07;;;;;;;23.24;100.00;99220.66;4989507;28;20202;-60
2023/07/16 03:16:45;;;;;;;6.90;4.20;;;;;;;23.20;100.00;99217.63;4988148;28;20631;-60
2023/07/16 03:19:12;;;;;;;8.63;4.22;;;;;;;23.12;100.00;99214.34;4989332;28;20205;-60
2023/07/16 03:21:39;;;;;;;7.03;4.50;;;;;;;23.05;100.00;99214.31;4989344;28;20208;-60
2023/07/16 03:24:06;;;;;;;6.32;4.40;;;;;;;23.09;100.00;99219.97;4989316;28;20216;-60
2023/07/16 03:26:33;;;;;;;6.10;4.32;;;;;;;23.20;100.00;99222.84;4989249;28;20610;-60
2023/07/16 03:29:00;;;;;;;8.18;4.63;;;;;;;23.25;100.00;99219.69;4989140;28;20201;-60
2023/07/16 03:31:28;;;;;;;11.13;5.13;;;;;;;23.27;100.00;99218.50;4989104;28;20210;-60
2023/07/16 03:33:55;;;;;;;8.52;4.95;;;;;;;23.26;100.00;99222.09;4988714;28;20487;-60
2023/07/16 03:36:22;;;;;;;9.73;4.78;;;;;;;23.31;100.00;99223.34;4988749;28;20209;-60
2023/07/16 03:38:48;;;;;;;7.68;5.03;;;;;;;23.37;100.00;99222.59;4989114;28;20432;-60
2023/07/16 03:41:15;;;;;;;7.30;5.07;;;;;;;23.35;100.00;99224.56;4989148;28;20198;-60
2023/07/16 03:43:42;;;;;;;10.18;5.30;;;;;;;23.40;100.00;99228.22;4989160;28;20202;-60
2023/07/16 03:46:09;;;;;;;9.20;5.05;;;;;;;23.44;100.00;99228.63;4988773;28;20201;-60
2023/07/16 03:48:37;;;;;;;7.18;5.22;;;;;;;23.52;100.00;99225.88;4988951;28;20225;-60
2023/07/16 03:51:04;;;;;;;12.93;5.45;;;;;;;23.61;100.00;99232.56;4988805;28;20233;-60
2023/07/16 03:53:31;;;;;;;10.38;5.28;;;;;;;23.68;100.00;99236.03;4989005;28;20232;-60
2023/07/16 03:55:58;;;;;;;8.00;5.20;;;;;;;23.68;100.00;99240.47;4988784;28;20212;-60
2023/07/16 03:58:25;;;;;;;6.55;4.82;;;;;;;23.71;100.00;99243.53;4989047;28;20206;-60
2023/07/16 04:00:52;;;;;;;11.85;4.97;;;;;;;23.72;100.00;99241.72;4988660;28;20205;-60
2023/07/16 04:03:18;;;;;;;8.70;5.18;;;;;;;23.79;100.00;99242.53;4988717;28;20224;-60
2023/07/16 04:05:47;;;;;;;9.45;4.95;;;;;;;23.87;100.00;99249.41;4988830;28;20689;-60
2023/07/16 04:08:14;;;;;;;6.70;4.82;;;;;;;23.95;100.00;99249.28;4988963;28;20201;-60
2023/07/16 04:10:40;;;;;;;7.97;4.65;;;;;;;24.02;100.00;99247.47;4988934;28;20233;-60
2023/07/16 04:13:07;;;;;;;8.35;5.13;;;;;;;24.06;100.00;99243.50;4988267;28;20205;-60
2023/07/16 04:15:34;;;;;;;8.82;5.07;;;;;;;24.21;100.00;99250.41;4988373;28;20209;-60
2023/07/16 04:18:01;;;;;;;8.43;4.78;;;;;;;24.26;100.00;99254.03;4988497;28;20782;-60
2023/07/16 04:20:28;;;;;;;9.70;5.50;;;;;;;24.38;100.00;99262.13;4988422;28;20197;-60
2023/07/16 04:22:57;;;;;;;8.45;4.72;;;;;;;24.49;100.00;99258.13;4988395;28;20264;-60
2023/07/16 04:25:23;;;;;;;6.65;4.80;;;;;;;24.59;100.00;99261.19;4988285;28;20300;-60
2023/07/16 04:27:50;;;;;;;6.75;4.38;;;;;;;24.66;100.00;99261.22;4988784;28;20209;-60
2023/07/16 04:30:17;;;;;;;7.53;4.90;;;;;;;24.79;100.00;99266.47;4988526;28;20244;-60
2023/07/16 04:32:44;;;;;;;8.43;4.53;;;;;;;24.87;100.00;99268.91;4988145;28;20609;-60
2023/07/16 04:35:11;;;;;;;7.50;4.05;;;;;;;24.97;100.00;99261.47;4988415;28;20205;-60
2023/07/16 04:37:37;;;;;;;9.18;4.32;;;;;;;25.06;100.00;99264.69;4988139;28;20220;-60
2023/07/16 04:40:07;;;;;;;8.20;4.47;;;;;;;25.16;100.00;99257.28;4988050;28;20710;-60
2023/07/16 04:42:34;;;;;;;8.82;4.78;;;;;;;25.32;100.00;99253.44;4988232;28;20544;-61
2023/07/16 04:45:01;;;;;;;7.55;4.70;;;;;;;25.39;100.00;99262.09;4987762;28;20202;-60
2023/07/16 04:47:28;;;;;;;6.60;4.63;;;;;;;25.57;100.00;99265.91;4991062;28;20209;-60
2023/07/16 04:49:55;;;;;;;6.03;4.47;;;;;;;25.69;100.00;99272.94;4992084;28;20233;-60
2023/07/16 04:52:21;;;;;;;6.65;4.55;;;;;;;25.84;100.00;99272.75;4991993;28;20201;-60
2023/07/16 04:54:48;;;;;;;6.50;4.57;;;;;;;25.92;100.00;99269.91;4991918;28;20208;-60
2023/07/16 04:57:17;;;;;;;5.93;4.40;;;;;;;25.94;100.00;99273.09;4992232;28;20205;-60
2023/07/16 04:59:44;;;;;;;7.95;4.75;;;;;;;26.00;100.00;99266.22;4991954;28;20198;-60
2023/07/16 05:02:10;;;;;;;6.47;4.55;;;;;;;26.05;100.00;99268.25;4991841;28;20206;-61
2023/07/16 05:04:37;;;;;;;7.53;4.30;;;;;;;26.07;100.00;99271.47;4991723;28;20205;-60
2023/07/16 05:07:04;;;;;;;8.90;4.63;;;;;;;26.12;100.00;99274.25;4991971;28;20228;-60
2023/07/16 05:09:31;;;;;;;6.15;4.30;;;;;;;26.08;100.00;99273.88;4991733;28;20198;-61
2023/07/16 05:11:58;;;;;;;6.82;4.88;;;;;;;26.12;100.00;99274.25;4991632;28;20206;-61
2023/07/16 05:14:28;;;;;;;6.85;4.68;;;;;;;26.14;100.00;99272.25;4991714;28;20201;-60
2023/07/16 05:16:55;;;;;;;6.55;4.30;;;;;;;26.14;100.00;99280.09;4991525;28;20201;-60
2023/07/16 05:19:22;;;;;;;9.15;4.68;;;;;;;26.14;100.00;99282.72;4991522;28;20663;-61
2023/07/16 05:21:49;;;;;;;6.38;4.38;;;;;;;26.12;100.00;99285.56;4991744;28;20208;-61
2023/07/16 05:24:16;;;;;;;7.68;4.57;;;;;;;26.19;100.00;99290.78;4991297;28;20205;-60
2023/07/16 05:26:43;;;;;;;8.18;4.40;;;;;;;26.35;100.00;99287.66;4991619;28;20197;-61
2023/07/16 05:29:10;;;;;;;5.65;4.22;;;;;;;26.56;100.00;99296.31;4991567;28;20201;-60
2023/07/16 05:31:38;;;;;;;7.95;4.88;;;;;;;26.64;100.00;99293.41;4991208;28;20233;-60
2023/07/16 05:34:05;;;;;;;9.13;5.10;;;;;;;26.72;100.00;99292.38;4991092;28;20209;-60
2023/07/16 05:36:32;;;;;;;7.82;4.82;;;;;;;26.84;100.00;99293.31;4991638;28;20209;-60
2023/07/16 05:38:58;;;;;;;5.55;4.05;;;;;;;26.95;99.46;99304.94;4991304;28;20193;-61
2023/07/16 05:41:25;;;;;;;5.85;4.68;;;;;;;27.19;99.56;99298.94;4991285;28;20198;-61
2023/07/16 05:43:52;;;;;;;6.72;4.60;;;;;;;27.35;98.02;99304.69;4991000;28;20198;-61
2023/07/16 05:46:19;;;;;;;6.90;4.50;;;;;;;27.50;98.29;99302.53;4991226;28;20216;-61
2023/07/16 05:48:47;;;;;;;5.80;4.47;;;;;;;27.44;94.80;99303.41;4991354;28;20228;-61
2023/07/16 05:51:14;;;;;;;8.98;4.80;;;;;;;27.41;94.79;99303.84;4991236;28;20236;-61
2023/07/16 05:53:41;;;;;;;6.95;5.03;;;;;;;27.50;98.30;99302.53;4991029;28;20675;-61
2023/07/16 05:56:07;;;;;;;11.63;4.68;;;;;;;27.53;98.59;99312.63;4990940;28;20215;-61
2023/07/16 05:58:34;;;;;;;9.35;4.50;;;;;;;27.60;99.22;99318.59;4990614;28;20468;-61
2023/07/16 06:01:01;;;;;;;11.20;4.57;;;;;;;27.77;100.00;99309.16;4990962;28;20670;-61
2023/07/16 06:03:28;;;;;;;9.63;5.45;;;;;;;27.94;100.00;99311.25;4990838;28;20241;-61
2023/07/16 06:05:56;;;;;;;7.07;5.05;;;;;;;28.16;99.98;99320.31;4990660;28;20216;-61
2023/07/16 06:08:24;;;;;;;8.43;5.40;;;;;;;28.36;96.94;99314.00;4990958;28;20198;-61
2023/07/16 06:10:51;;;;;;;7.65;5.65;;;;;;;28.50;97.86;99312.84;4990502;28;20327;-61
2023/07/16 06:13:18;;;;;;;7.70;5.18;;;;;;;28.71;99.13;99323.91;4990762;28;20212;-61
2023/07/16 06:15:47;;;;;;;7.13;4.72;;;;;;;28.94;99.24;99318.72;4990732;28;20201;-61
2023/07/16 06:18:14;;;;;;;7.97;5.25;;;;;;;29.10;95.04;99318.09;4990578;28;20198;-61
2023/07/16 06:20:43;;;;;;;7.05;5.38;;;;;;;29.25;100.00;99319.50;4990706;28;20209;-61
2023/07/16 06:23:12;;;;;;;10.02;5.07;;;;;;;29.46;98.12;99321.56;4990346;28;20284;-61
2023/07/16 06:25:40;;;;;;;7.25;4.97;;;;;;;29.63;95.42;99321.72;4990380;28;20708;-61
2023/07/16 06:28:07;;;;;;;6.35;5.07;;;;;;;29.86;93.53;99320.91;4990321;28;20241;-59
2023/07/16 06:30:34;;;;;;;7.07;4.95;;;;;;;30.09;94.70;99319.28;4990200;28;20260;-62
2023/07/16 06:33:01;;;;;;;6.07;4.80;;;;;;;30.25;90.38;99321.19;4990391;28;20213;-60
2023/07/16 06:35:28;;;;;;;6.60;4.70;;;;;;;30.30;87.17;99321.31;4990172;28;20693;-61
2023/07/16 06:37:54;;;;;;;6.20;4.43;;;;;;;30.43;90.23;99321.03;4990421;28;20201;-61
2023/07/16 06:40:23;;;;;;;6.63;4.70;;;;;;;30.53;93.26;99322.28;4990088;28;20212;-61
2023/07/16 06:42:49;;;;;;;8.93;4.68;;;;;;;30.54;84.02;99324.66;4990010;28;20201;-61
2023/07/16 06:45:18;;;;;;;7.90;4.95;;;;;;;30.60;84.99;99330.84;4990059;28;20209;-60
2023/07/16 06:47:45;;;;;;;8.65;4.93;;;;;;;30.66;87.91;99319.34;4989818;28;20253;-60
2023/07/16 06:50:11;;;;;;;6.68;4.35;;;;;;;30.70;86.68;99320.47;4989839;28;20272;-61
2023/07/16 06:52:38;;;;;;;8.60;4.63;;;;;;;30.75;84.00;99328.50;4990016;28;20213;-61
2023/07/16 06:55:06;;;;;;;8.43;4.85;;;;;;;30.86;84.26;99325.03;4989750;28;20545;-61
2023/07/16 06:57:34;;;;;;;7.80;4.60;;;;;;;30.99;90.03;99333.69;4989883;28;20216;-61
2023/07/16 07:00:01;;;;;;;6.35;5.00;;;;;;;31.10;83.45;99335.47;4989526;28;20202;-61
2023/07/16 07:02:28;;;;;;;6.28;4.88;;;;;;;31.19;84.29;99339.31;4989503;28;20208;-59
2023/07/16 07:04:55;;;;;;;8.05;4.20;;;;;;;31.25;83.00;99335.69;5008239;28;20235;-60
2023/07/16 07:07:22;;;;;;;6.00;4.38;;;;;;;31.41;85.13;99341.25;5009221;28;20224;-61
2023/07/16 07:09:49;;;;;;;8.52;4.70;;;;;;;31.49;79.59;99343.50;5008603;28;20645;-61
2023/07/16 07:12:16;;;;;;;5.88;4.53;;;;;;;31.63;84.45;99328.91;5009182;28;20360;-61
2023/07/16 07:14:44;;;;;;;6.28;4.47;;;;;;;31.73;82.91;99339.59;5006147;28;20197;-59
2023/07/16 07:17:11;;;;;;;6.15;4.38;;;;;;;31.75;76.52;99337.53;4999641;28;20209;-61
2023/07/16 07:19:38;;;;;;;5.32;4.55;;;;;;;31.87;78.01;99344.56;4994523;28;20626;-60
2023/07/16 07:22:05;;;;;;;7.75;4.50;;;;;;;31.96;78.10;99343.91;4997631;28;20741;-61
2023/07/16 07:24:32;;;;;;;5.75;4.18;;;;;;;32.11;79.54;99340.66;4991404;28;20595;-60
2023/07/16 07:26:58;;;;;;;7.63;4.78;;;;;;;32.28;77.83;99340.59;4988896;28;20217;-65
2023/07/16 07:29:25;;;;;;;6.38;4.38;;;;;;;32.50;79.44;99337.97;4996971;28;20205;-64
2023/07/16 07:31:53;;;;;;;5.18;4.38;;;;;;;32.66;77.72;99342.34;5008390;28;20248;-64
2023/07/16 07:34:21;;;;;;;6.47;4.70;;;;;;;32.78;82.21;99344.06;5008441;28;20218;-61
2023/07/16 07:36:48;;;;;;;7.22;4.25;;;;;;;32.86;76.92;99352.34;5008683;28;20197;-61
2023/07/16 07:39:16;;;;;;;6.15;4.07;;;;;;;32.86;78.47;99341.75;5008563;28;20197;-62
2023/07/16 07:41:43;;;;;;;6.75;4.57;;;;;;;33.06;75.70;99343.81;5008486;28;20674;-63
2023/07/16 07:44:10;;;;;;;5.68;4.43;;;;;;;33.12;73.91;99339.38;5008486;28;20220;-62
2023/07/16 07:46:37;;;;;;;6.57;4.43;;;;;;;33.26;76.12;99340.53;5008267;28;20197;-62
2023/07/16 07:49:05;;;;;;;6.72;4.90;;;;;;;33.39;73.59;99344.59;5008634;28;20209;-62
2023/07/16 07:51:32;;;;;;;6.80;4.80;;;;;;;33.53;74.52;99340.50;5008321;28;20232;-62
2023/07/16 07:53:58;;;;;;;5.78;4.65;;;;;;;33.62;70.46;99346.13;5008180;28;20694;-61
2023/07/16 07:56:25;;;;;;;8.88;4.47;;;;;;;33.72;73.61;99342.75;5007680;28;20741;-62
2023/07/16 07:58:52;;;;;;;6.07;4.47;;;;;;;33.77;73.14;99335.63;5007994;28;20197;-61
2023/07/16 08:01:19;;;;;;;8.77;4.30;;;;;;;33.77;69.26;99332.16;5008273;28;20315;-68
2023/07/16 08:03:46;;;;;;;8.07;4.20;;;;;;;33.95;71.59;99333.59;5008307;28;20716;-65
2023/07/16 08:06:14;;;;;;;6.40;4.40;;;;;;;34.12;67.61;99341.34;5008147;28;20204;-64
2023/07/16 08:08:41;;;;;;;6.93;4.60;;;;;;;34.24;63.09;99344.59;5008384;28;20374;-66
2023/07/16 08:11:08;;;;;;;6.00;4.47;;;;;;;34.35;68.30;99340.91;5008140;28;20243;-63
2023/07/16 08:13:35;;;;;;;4.95;4.30;;;;;;;34.32;63.17;99341.44;5008261;28;20209;-65
2023/07/16 08:16:01;;;;;;;6.00;4.38;;;;;;;34.29;68.33;99336.63;5007990;28;20670;-64
2023/07/16 08:18:28;;;;;;;6.03;4.40;;;;;;;34.37;65.40;99349.41;5008596;28;20225;-64
2023/07/16 08:20:55;;;;;;;5.78;4.60;;;;;;;34.32;62.58;99345.94;5006918;28;20192;-62
2023/07/16 08:23:23;;;;;;;6.43;4.28;;;;;;;34.47;65.65;99343.31;5008312;28;20220;-63
2023/07/16 08:25:51;;;;;;;8.35;4.90;;;;;;;34.63;61.62;99342.34;5008011;28;20599;-64
2023/07/16 08:28:18;;;;;;;5.57;4.57;;;;;;;34.79;59.95;99351.16;5006978;28;20216;-62
2023/07/16 08:30:47;;;;;;;6.53;4.72;;;;;;;34.72;64.69;99347.13;4995988;28;20220;-62
2023/07/16 08:33:16;;;;;;;5.55;4.28;;;;;;;34.78;57.67;99354.84;5007051;28;20228;-63
2023/07/16 08:35:43;;;;;;;5.80;3.97;;;;;;;34.93;62.96;99352.19;5008035;28;20208;-63
2023/07/16 08:38:10;;;;;;;6.10;4.45;;;;;;;35.05;56.49;99353.84;5007601;28;20205;-63
2023/07/16 08:40:38;;;;;;;6.88;4.43;;;;;;;35.23;59.17;99348.00;5007766;28;20201;-63
2023/07/16 08:43:07;;;;;;;7.57;4.60;;;;;;;35.14;56.75;99341.59;5007613;28;20680;-63
2023/07/16 08:45:40;;;;;;;6.53;4.35;;;;;;;35.17;56.68;99346.41;5007582;28;20279;-62
2023/07/16 08:48:08;;;;;;;5.30;4.60;;;;;;;35.32;62.41;99349.06;5007501;28;20275;-63
2023/07/16 08:50:36;;;;;;;8.52;4.70;;;;;;;35.42;63.04;99350.91;5007501;28;20208;-62
2023/07/16 08:53:04;;;;;;;6.10;4.88;;;;;;;35.58;60.41;99349.06;5007965;28;20200;-62
2023/07/16 08:55:31;;;;;;;5.30;4.47;;;;;;;35.85;62.39;99347.91;5007654;28;20201;-62
2023/07/16 08:58:00;;;;;;;6.13;4.20;;;;;;;35.82;56.15;99349.25;5007845;28;20373;-62
2023/07/16 09:00:27;;;;;;;6.43;4.25;;;;;;;35.94;57.68;99343.63;5007948;28;20224;-62
2023/07/16 09:02:54;;;;;;;5.25;4.03;;;;;;;36.13;56.71;99336.66;5007372;28;20278;-62
2023/07/16 09:05:22;;;;;;;6.05;4.47;;;;;;;36.31;56.74;99343.22;5007524;28;20903;-62
2023/07/16 09:07:49;;;;;;;6.38;4.82;;;;;;;36.10;53.13;99347.03;5005602;28;20216;-62
2023/07/16 09:10:16;;;;;;;5.53;4.28;;;;;;;36.31;60.26;99348.56;4988207;28;20201;-62
2023/07/16 09:12:43;;;;;;;7.63;4.25;;;;;;;36.40;60.05;99340.78;4988072;28;20260;-62
2023/07/16 09:15:12;;;;;;;8.20;4.80;;;;;;;36.54;56.48;99341.81;4988135;28;20201;-62
2023/07/16 09:17:39;;;;;;;5.53;4.40;;;;;;;36.67;55.36;99343.84;4988300;28;20216;-62
2023/07/16 09:20:08;;;;;;;5.07;4.38;;;;;;;36.73;56.69;99333.94;4987964;28;20206;-62
2023/07/16 09:22:35;;;;;;;5.30;4.28;;;;;;;36.79;54.39;99332.03;4987917;28;20671;-63
2023/07/16 09:25:02;;;;;;;7.60;4.47;;;;;;;36.54;54.17;99340.97;4987759;28;20205;-63
2023/07/16 09:27:30;;;;;;;5.47;4.65;;;;;;;36.37;55.42;99341.34;4987960;28;20210;-63
2023/07/16 09:29:59;;;;;;;5.57;4.20;;;;;;;36.17;50.99;99343.03;4987825;28;20201;-63
2023/07/16 09:32:35;;;;;;;5.20;4.65;;;;;;;36.48;58.72;99333.00;4990290;28;20233;-63
2023/07/16 09:35:02;;;;;;;6.13;4.70;;;;;;;36.72;53.66;99332.34;5011286;28;20201;-62
2023/07/16 09:37:29;;;;;;;6.47;4.80;;;;;;;35.94;51.78;99332.97;5010924;28;20203;-62
2023/07/16 09:39:56;;;;;;;6.05;4.35;;;;;;;35.81;54.37;99329.84;5011132;28;20569;-62
2023/07/16 09:42:24;;;;;;;8.13;4.38;;;;;;;36.13;51.97;99334.00;5010795;28;20284;-62
2023/07/16 09:44:54;;;;;;;7.07;5.00;;;;;;;36.46;54.54;99329.81;5010240;28;20208;-62
2023/07/16 09:47:21;;;;;;;5.80;3.97;;;;;;;36.78;54.16;99319.78;5010016;28;20220;-62
2023/07/16 09:49:49;;;;;;;8.52;4.30;;;;;;;36.95;51.21;99320.19;5010674;28;20205;-62
2023/07/16 09:52:16;;;;;;;6.80;4.75;;;;;;;37.05;48.55;99322.78;5010759;28;20232;-62
2023/07/16 09:54:46;;;;;;;7.38;4.80;;;;;;;37.32;54.01;99319.63;5011012;28;20220;-62
2023/07/16 09:57:15;;;;;;;7.18;4.03;;;;;;;37.29;50.13;99324.69;5010818;28;20677;-64
2023/07/16 09:59:42;;;;;;;5.72;4.50;;;;;;;37.45;49.49;99318.16;5010710;28;20288;-61
2023/07/16 10:02:09;;;;;;;7.95;4.43;;;;;;;37.45;51.21;99323.47;5010937;28;20584;-63
2023/07/16 10:04:40;;;;;;;7.80;4.00;;;;;;;37.53;49.19;99322.91;5010498;28;20200;-61
2023/07/16 10:07:21;;;;;;;6.50;4.55;;;;;;;37.30;48.67;99320.97;5010503;28;20266;-61
2023/07/16 10:09:54;;;;;;;6.00;4.53;;;;;;;37.50;51.20;99315.47;5010658;28;20565;-61
2023/07/16 10:12:22;;;;;;;11.70;5.47;;;;;;;37.34;50.98;99317.44;5010383;28;20236;-60
2023/07/16 10:14:49;;;;;;;6.60;4.38;;;;;;;37.43;51.43;99314.97;5010164;28;20197;-62
2023/07/16 10:17:18;;;;;;;5.30;4.25;;;;;;;37.14;46.75;99318.44;5010472;28;20212;-60
2023/07/16 10:19:52;;;;;;;7.47;4.35;;;;;;;37.09;49.08;99317.69;5010122;28;20692;-60
2023/07/16 10:22:32;;;;;;;8.20;4.68;;;;;;;36.86;49.64;99319.19;5010234;28;20204;-61
2023/07/16 10:24:59;;;;;;;5.63;4.18;;;;;;;36.52;48.16;99322.63;5010051;28;20204;-59
2023/07/16 10:27:33;;;;;;;6.90;4.63;;;;;;;36.27;50.00;99316.34;5010049;28;20623;-61
2023/07/16 10:30:02;;;;;;;5.47;4.40;;;;;;;36.27;51.19;99307.56;5009983;28;20207;-59
2023/07/16 10:32:30;;;;;;;7.47;4.93;;;;;;;36.43;57.26;99314.41;5009641;28;20720;-61
2023/07/16 10:34:57;;;;;;;6.05;4.63;;;;;;;36.67;52.13;99301.19;5009806;28;20712;-61
2023/07/16 10:37:26;;;;;;;6.32;4.63;;;;;;;36.59;51.66;99295.66;5010080;28;20208;-61
2023/07/16 10:39:55;;;;;;;6.05;4.32;;;;;;;36.86;52.16;99297.88;5009962;28;20315;-62
2023/07/16 10:42:23;;;;;;;8.20;4.72;;;;;;;36.88;51.25;99293.03;5009693;28;20204;-61
2023/07/16 10:44:52;;;;;;;6.20;4.75;;;;;;;36.99;49.79;99294.56;5008699;28;20209;-61
2023/07/16 10:47:26;;;;;;;5.72;4.35;;;;;;;36.92;50.78;99288.75;5009774;28;20524;-61
2023/07/16 10:49:54;;;;;;;8.73;4.70;;;;;;;36.91;48.26;99290.63;5009652;28;20670;-62
2023/07/16 10:52:21;;;;;;;5.70;4.50;;;;;;;36.96;47.75;99289.78;5008474;28;20351;-64
2023/07/16 10:54:50;;;;;;;5.55;4.38;;;;;;;37.07;50.22;99296.66;4989613;28;20605;-62
2023/07/16 10:57:19;;;;;;;5.85;4.80;;;;;;;37.17;48.46;99288.53;4989874;28;20205;-62
2023/07/16 10:59:47;;;;;;;5.57;4.40;;;;;;;37.31;50.60;99278.00;4989902;28;20201;-62
2023/07/16 11:02:16;;;;;;;6.82;4.88;;;;;;;37.31;47.93;99285.22;4993379;28;20205;-60
2023/07/16 11:04:43;;;;;;;5.00;4.50;;;;;;;37.09;47.03;99278.50;4990807;28;20206;-62
2023/07/16 11:07:11;;;;;;;6.35;4.85;;;;;;;37.21;49.86;99278.13;5005145;28;20212;-60
2023/07/16 11:09:43;;;;;;;6.50;4.60;;;;;;;37.22;48.93;99281.59;5009207;28;20216;-61
2023/07/16 11:12:12;;;;;;;5.13;4.40;;;;;;;37.26;44.62;99274.59;5009016;28;20228;-61
2023/07/16 11:14:40;;;;;;;5.18;4.43;;;;;;;37.42;47.77;99278.69;5009328;28;20227;-61
2023/07/16 11:17:08;;;;;;;6.97;4.80;;;;;;;37.17;46.20;99274.41;5009275;28;20208;-62
2023/07/16 11:19:36;;;;;;;6.32;4.70;;;;;;;37.00;45.51;99276.69;5009306;28;20255;-61
2023/07/16 11:22:04;;;;;;;5.53;4.68;;;;;;;36.80;47.76;99275.00;5008943;28;20471;-61
2023/07/16 11:24:38;;;;;;;6.57;4.75;;;;;;;36.72;46.99;99271.88;5008822;28;20605;-61
2023/07/16 11:27:07;;;;;;;8.00;4.55;;;;;;;36.62;45.44;99263.16;5009293;28;20208;-61
2023/07/16 11:29:38;;;;;;;6.45;4.43;;;;;;;36.29;46.63;99264.69;5008887;28;20501;-61
2023/07/16 11:32:06;;;;;;;6.18;5.00;;;;;;;36.18;46.24;99270.06;5008650;28;20796;-61